sensor_id;sensor_type;location;lat;lon;timestamp;pressure;altitude;pressure_sealevel;temperature;humidity
50859;BME280;36826;47.514;19.056;2023-02-16T00:00:46;101477.75;;;12.77;44.87
50859;BME280;36826;47.514;19.056;2023-02-16T00:03:17;101472.03;;;12.82;44.67
50859;BME280;36826;47.514;19.056;2023-02-16T00:05:43;101478.69;;;12.65;45.37
50859;BME280;36826;47.514;19.056;2023-02-16T00:08:08;101471.94;;;12.95;44.68
50859;BME280;36826;47.514;19.056;2023-02-16T00:10:34;101471.97;;;13.29;44.59
50859;BME280;36826;47.514;19.056;2023-02-16T00:13:00;101462.41;;;13.13;44.18
50859;BME280;36826;47.514;19.056;2023-02-16T00:15:45;101469.63;;;13.01;44.66
50859;BME280;36826;47.514;19.056;2023-02-16T00:18:17;101469.06;;;12.62;46.61
50859;BME280;36826;47.514;19.056;2023-02-16T00:20:43;101468.75;;;13.01;46.20
50859;BME280;36826;47.514;19.056;2023-02-16T00:23:09;101469.03;;;13.20;45.85
50859;BME280;36826;47.514;19.056;2023-02-16T00:25:34;101465.25;;;13.46;45.77
50859;BME280;36826;47.514;19.056;2023-02-16T00:28:01;101463.13;;;13.04;45.42
50859;BME280;36826;47.514;19.056;2023-02-16T00:30:28;101463.34;;;12.78;45.47
50859;BME280;36826;47.514;19.056;2023-02-16T00:32:53;101464.06;;;12.69;45.54
50859;BME280;36826;47.514;19.056;2023-02-16T00:35:19;101461.06;;;12.49;46.12
50859;BME280;36826;47.514;19.056;2023-02-16T00:37:46;101457.13;;;12.42;46.03
50859;BME280;36826;47.514;19.056;2023-02-16T00:40:12;101452.25;;;12.47;46.30
50859;BME280;36826;47.514;19.056;2023-02-16T00:42:38;101458.84;;;12.43;45.99
50859;BME280;36826;47.514;19.056;2023-02-16T00:45:04;101454.09;;;12.47;46.42
50859;BME280;36826;47.514;19.056;2023-02-16T00:47:39;101461.78;;;12.40;46.33
50859;BME280;36826;47.514;19.056;2023-02-16T00:52:43;101450.25;;;12.73;45.83
50859;BME280;36826;47.514;19.056;2023-02-16T00:55:20;101453.69;;;12.76;45.71
50859;BME280;36826;47.514;19.056;2023-02-16T00:57:47;101445.25;;;12.69;45.86
50859;BME280;36826;47.514;19.056;2023-02-16T01:00:25;101443.25;;;12.59;45.71
50859;BME280;36826;47.514;19.056;2023-02-16T01:02:52;101448.16;;;12.66;45.88
50859;BME280;36826;47.514;19.056;2023-02-16T01:05:19;101448.16;;;12.66;45.39
50859;BME280;36826;47.514;19.056;2023-02-16T01:07:45;101439.34;;;12.64;45.77
50859;BME280;36826;47.514;19.056;2023-02-16T01:10:29;101441.84;;;12.42;46.17
50859;BME280;36826;47.514;19.056;2023-02-16T01:13:13;101444.72;;;12.64;45.73
50859;BME280;36826;47.514;19.056;2023-02-16T01:15:39;101440.63;;;12.35;46.27
50859;BME280;36826;47.514;19.056;2023-02-16T01:18:05;101438.63;;;12.62;45.46
50859;BME280;36826;47.514;19.056;2023-02-16T01:20:31;101437.19;;;12.33;46.00
50859;BME280;36826;47.514;19.056;2023-02-16T01:22:56;101436.09;;;12.00;46.04
50859;BME280;36826;47.514;19.056;2023-02-16T01:25:22;101438.19;;;12.08;46.27
50859;BME280;36826;47.514;19.056;2023-02-16T01:27:47;101434.66;;;12.07;46.67
50859;BME280;36826;47.514;19.056;2023-02-16T01:30:14;101433.28;;;12.02;46.20
50859;BME280;36826;47.514;19.056;2023-02-16T01:32:40;101428.31;;;11.95;46.90
50859;BME280;36826;47.514;19.056;2023-02-16T01:35:06;101424.75;;;12.08;46.00
50859;BME280;36826;47.514;19.056;2023-02-16T01:37:31;101425.28;;;12.13;46.13
50859;BME280;36826;47.514;19.056;2023-02-16T01:39:57;101430.28;;;12.18;45.60
50859;BME280;36826;47.514;19.056;2023-02-16T01:42:26;101421.22;;;11.94;46.32
50859;BME280;36826;47.514;19.056;2023-02-16T01:45:02;101414.78;;;11.48;47.88
50859;BME280;36826;47.514;19.056;2023-02-16T01:50:21;101416.00;;;10.13;50.57
50859;BME280;36826;47.514;19.056;2023-02-16T01:53:00;101420.19;;;10.05;50.65
50859;BME280;36826;47.514;19.056;2023-02-16T01:55:31;101420.03;;;11.37;47.95
50859;BME280;36826;47.514;19.056;2023-02-16T01:58:04;101412.78;;;11.63;47.21
50859;BME280;36826;47.514;19.056;2023-02-16T02:02:57;101404.97;;;11.85;47.08
50859;BME280;36826;47.514;19.056;2023-02-16T02:05:43;101403.56;;;11.68;47.03
50859;BME280;36826;47.514;19.056;2023-02-16T02:08:44;101392.63;;;11.58;47.10
50859;BME280;36826;47.514;19.056;2023-02-16T02:13:46;101384.41;;;11.72;46.54
50859;BME280;36826;47.514;19.056;2023-02-16T02:16:18;101386.97;;;11.74;46.66
50859;BME280;36826;47.514;19.056;2023-02-16T02:18:44;101384.75;;;11.30;47.17
50859;BME280;36826;47.514;19.056;2023-02-16T02:37:10;101377.44;;;11.32;47.32
50859;BME280;36826;47.514;19.056;2023-02-16T02:42:10;101387.88;;;11.61;46.99
50859;BME280;36826;47.514;19.056;2023-02-16T02:44:48;101388.28;;;11.68;46.65
50859;BME280;36826;47.514;19.056;2023-02-16T02:47:14;101382.28;;;11.64;46.75
50859;BME280;36826;47.514;19.056;2023-02-16T02:49:39;101392.22;;;11.51;46.92
50859;BME280;36826;47.514;19.056;2023-02-16T02:52:06;101386.50;;;11.18;47.26
50859;BME280;36826;47.514;19.056;2023-02-16T02:54:32;101385.91;;;11.39;46.92
50859;BME280;36826;47.514;19.056;2023-02-16T02:57:24;101378.19;;;11.34;47.01
50859;BME280;36826;47.514;19.056;2023-02-16T03:02:55;101370.69;;;11.02;47.95
50859;BME280;36826;47.514;19.056;2023-02-16T03:05:22;101372.75;;;11.23;47.78
50859;BME280;36826;47.514;19.056;2023-02-16T03:07:51;101378.31;;;11.33;47.20
50859;BME280;36826;47.514;19.056;2023-02-16T03:10:21;101372.16;;;11.44;47.69
50859;BME280;36826;47.514;19.056;2023-02-16T03:13:18;101371.25;;;11.19;48.32
50859;BME280;36826;47.514;19.056;2023-02-16T03:15:45;101372.47;;;11.15;48.03
50859;BME280;36826;47.514;19.056;2023-02-16T03:18:12;101376.06;;;11.40;47.76
50859;BME280;36826;47.514;19.056;2023-02-16T03:20:57;101373.81;;;11.33;48.24
50859;BME280;36826;47.514;19.056;2023-02-16T03:23:41;101371.72;;;11.13;47.78
50859;BME280;36826;47.514;19.056;2023-02-16T03:26:26;101362.56;;;11.28;47.67
50859;BME280;36826;47.514;19.056;2023-02-16T03:29:11;101372.28;;;10.92;48.81
50859;BME280;36826;47.514;19.056;2023-02-16T03:31:56;101358.09;;;11.53;47.41
50859;BME280;36826;47.514;19.056;2023-02-16T03:34:21;101351.69;;;11.67;46.60
50859;BME280;36826;47.514;19.056;2023-02-16T03:36:48;101366.09;;;11.29;47.49
50859;BME280;36826;47.514;19.056;2023-02-16T03:39:15;101365.25;;;11.28;47.85
50859;BME280;36826;47.514;19.056;2023-02-16T03:41:45;101363.06;;;11.33;46.93
50859;BME280;36826;47.514;19.056;2023-02-16T03:44:11;101365.41;;;11.38;46.69
50859;BME280;36826;47.514;19.056;2023-02-16T03:46:37;101358.09;;;11.53;47.15
50859;BME280;36826;47.514;19.056;2023-02-16T03:49:02;101357.94;;;11.30;46.84
50859;BME280;36826;47.514;19.056;2023-02-16T03:51:28;101361.97;;;11.36;46.58
50859;BME280;36826;47.514;19.056;2023-02-16T03:53:53;101362.31;;;10.42;47.37
50859;BME280;36826;47.514;19.056;2023-02-16T03:56:18;101362.75;;;9.68;50.60
50859;BME280;36826;47.514;19.056;2023-02-16T03:58:44;101363.91;;;9.92;50.10
50859;BME280;36826;47.514;19.056;2023-02-16T04:01:10;101361.03;;;10.48;48.59
50859;BME280;36826;47.514;19.056;2023-02-16T04:03:35;101353.50;;;10.92;47.85
50859;BME280;36826;47.514;19.056;2023-02-16T04:06:00;101356.38;;;11.02;46.97
50859;BME280;36826;47.514;19.056;2023-02-16T04:08:26;101361.63;;;11.16;46.87
50859;BME280;36826;47.514;19.056;2023-02-16T04:10:51;101357.28;;;10.38;48.74
50859;BME280;36826;47.514;19.056;2023-02-16T04:13:18;101351.59;;;10.81;48.14
50859;BME280;36826;47.514;19.056;2023-02-16T04:15:43;101357.72;;;10.70;48.08
50859;BME280;36826;47.514;19.056;2023-02-16T04:18:09;101355.47;;;10.90;47.39
50859;BME280;36826;47.514;19.056;2023-02-16T04:20:35;101354.81;;;10.73;48.04
50859;BME280;36826;47.514;19.056;2023-02-16T04:23:00;101354.94;;;10.85;47.48
50859;BME280;36826;47.514;19.056;2023-02-16T04:25:26;101358.22;;;11.01;47.40
50859;BME280;36826;47.514;19.056;2023-02-16T04:27:51;101353.72;;;11.02;47.68
50859;BME280;36826;47.514;19.056;2023-02-16T04:30:18;101360.19;;;10.73;48.29
50859;BME280;36826;47.514;19.056;2023-02-16T04:32:43;101363.63;;;10.76;48.19
50859;BME280;36826;47.514;19.056;2023-02-16T04:35:09;101366.41;;;10.61;47.88
50859;BME280;36826;47.514;19.056;2023-02-16T04:37:34;101363.72;;;10.61;48.60
50859;BME280;36826;47.514;19.056;2023-02-16T04:40:00;101358.47;;;10.59;48.63
50859;BME280;36826;47.514;19.056;2023-02-16T04:42:25;101369.84;;;10.63;48.41
50859;BME280;36826;47.514;19.056;2023-02-16T04:44:50;101367.66;;;10.42;48.23
50859;BME280;36826;47.514;19.056;2023-02-16T04:47:16;101370.69;;;10.51;48.82
50859;BME280;36826;47.514;19.056;2023-02-16T04:49:41;101368.97;;;10.50;48.10
50859;BME280;36826;47.514;19.056;2023-02-16T04:52:06;101369.41;;;10.69;48.60
50859;BME280;36826;47.514;19.056;2023-02-16T04:54:32;101371.44;;;10.66;48.53
50859;BME280;36826;47.514;19.056;2023-02-16T04:56:58;101365.75;;;10.70;48.50
50859;BME280;36826;47.514;19.056;2023-02-16T04:59:23;101363.06;;;10.70;48.00
50859;BME280;36826;47.514;19.056;2023-02-16T05:01:48;101359.13;;;10.63;48.65
50859;BME280;36826;47.514;19.056;2023-02-16T05:04:14;101360.28;;;10.72;47.84
50859;BME280;36826;47.514;19.056;2023-02-16T05:06:40;101359.34;;;10.60;48.40
50859;BME280;36826;47.514;19.056;2023-02-16T05:09:06;101357.38;;;10.36;48.84
50859;BME280;36826;47.514;19.056;2023-02-16T05:11:31;101353.44;;;10.55;48.73
50859;BME280;36826;47.514;19.056;2023-02-16T05:14:20;101355.06;;;10.57;48.44
50859;BME280;36826;47.514;19.056;2023-02-16T05:17:04;101355.47;;;10.38;48.63
50859;BME280;36826;47.514;19.056;2023-02-16T05:19:29;101361.59;;;10.53;48.14
50859;BME280;36826;47.514;19.056;2023-02-16T05:21:54;101360.88;;;10.37;48.34
50859;BME280;36826;47.514;19.056;2023-02-16T05:24:20;101357.00;;;10.28;48.19
50859;BME280;36826;47.514;19.056;2023-02-16T05:26:45;101350.75;;;10.55;48.02
50859;BME280;36826;47.514;19.056;2023-02-16T05:29:10;101354.50;;;10.52;48.41
50859;BME280;36826;47.514;19.056;2023-02-16T05:31:36;101350.97;;;10.52;48.01
50859;BME280;36826;47.514;19.056;2023-02-16T05:34:01;101347.44;;;10.51;47.86
50859;BME280;36826;47.514;19.056;2023-02-16T05:36:26;101350.09;;;10.51;48.26
50859;BME280;36826;47.514;19.056;2023-02-16T05:38:52;101349.91;;;10.54;48.44
50859;BME280;36826;47.514;19.056;2023-02-16T05:41:17;101360.41;;;10.70;48.05
50859;BME280;36826;47.514;19.056;2023-02-16T05:43:56;101352.84;;;10.37;48.67
50859;BME280;36826;47.514;19.056;2023-02-16T05:46:22;101358.63;;;8.79;52.52
50859;BME280;36826;47.514;19.056;2023-02-16T05:48:47;101366.25;;;9.14;52.84
50859;BME280;36826;47.514;19.056;2023-02-16T05:51:13;101376.19;;;8.83;53.36
50859;BME280;36826;47.514;19.056;2023-02-16T05:53:38;101362.00;;;9.39;51.65
50859;BME280;36826;47.514;19.056;2023-02-16T05:56:04;101358.97;;;9.86;51.57
50859;BME280;36826;47.514;19.056;2023-02-16T05:58:29;101356.31;;;10.39;49.48
50859;BME280;36826;47.514;19.056;2023-02-16T06:00:54;101345.31;;;10.56;48.99
50859;BME280;36826;47.514;19.056;2023-02-16T06:03:20;101348.06;;;10.55;48.47
50859;BME280;36826;47.514;19.056;2023-02-16T06:05:45;101340.47;;;10.49;48.95
50859;BME280;36826;47.514;19.056;2023-02-16T06:08:10;101345.16;;;10.84;48.75
50859;BME280;36826;47.514;19.056;2023-02-16T06:10:36;101345.13;;;10.19;49.85
50859;BME280;36826;47.514;19.056;2023-02-16T06:13:01;101345.91;;;10.73;48.12
50859;BME280;36826;47.514;19.056;2023-02-16T06:15:26;101338.88;;;11.22;47.51
50859;BME280;36826;47.514;19.056;2023-02-16T06:17:52;101346.59;;;11.51;46.39
50859;BME280;36826;47.514;19.056;2023-02-16T06:20:17;101347.72;;;12.67;44.37
50859;BME280;36826;47.514;19.056;2023-02-16T06:22:42;101343.38;;;13.88;42.36
50859;BME280;36826;47.514;19.056;2023-02-16T06:25:08;101344.06;;;13.02;42.33
50859;BME280;36826;47.514;19.056;2023-02-16T06:27:33;101338.09;;;12.87;42.92
50859;BME280;36826;47.514;19.056;2023-02-16T06:29:58;101343.84;;;12.71;42.81
50859;BME280;36826;47.514;19.056;2023-02-16T06:32:23;101337.53;;;14.98;40.86
50859;BME280;36826;47.514;19.056;2023-02-16T06:34:49;101341.56;;;16.71;36.69
50859;BME280;36826;47.514;19.056;2023-02-16T06:37:14;101343.72;;;17.05;36.47
50859;BME280;36826;47.514;19.056;2023-02-16T06:39:39;101336.44;;;18.77;33.96
50859;BME280;36826;47.514;19.056;2023-02-16T06:42:05;101333.44;;;17.73;34.66
50859;BME280;36826;47.514;19.056;2023-02-16T06:44:30;101336.97;;;19.15;32.93
50859;BME280;36826;47.514;19.056;2023-02-16T06:46:55;101338.19;;;19.29;31.50
50859;BME280;36826;47.514;19.056;2023-02-16T06:49:21;101338.13;;;20.21;31.18
50859;BME280;36826;47.514;19.056;2023-02-16T06:51:47;101335.41;;;19.80;31.13
50859;BME280;36826;47.514;19.056;2023-02-16T06:54:12;101330.25;;;20.60;30.07
50859;BME280;36826;47.514;19.056;2023-02-16T06:56:38;101334.47;;;20.79;30.13
50859;BME280;36826;47.514;19.056;2023-02-16T06:59:04;101334.59;;;20.94;29.93
50859;BME280;36826;47.514;19.056;2023-02-16T07:01:30;101321.94;;;22.64;28.33
50859;BME280;36826;47.514;19.056;2023-02-16T07:03:56;101322.94;;;24.03;27.07
50859;BME280;36826;47.514;19.056;2023-02-16T07:06:22;101320.13;;;24.81;26.65
50859;BME280;36826;47.514;19.056;2023-02-16T07:08:48;101323.31;;;24.92;26.63
50859;BME280;36826;47.514;19.056;2023-02-16T07:11:14;101324.25;;;25.81;24.95
50859;BME280;36826;47.514;19.056;2023-02-16T07:13:39;101323.09;;;26.76;23.61
50859;BME280;36826;47.514;19.056;2023-02-16T07:16:05;101321.94;;;27.11;23.79
50859;BME280;36826;47.514;19.056;2023-02-16T07:18:30;101329.66;;;26.75;23.80
50859;BME280;36826;47.514;19.056;2023-02-16T07:20:56;101326.63;;;27.10;23.32
50859;BME280;36826;47.514;19.056;2023-02-16T07:23:21;101334.91;;;27.81;23.10
50859;BME280;36826;47.514;19.056;2023-02-16T07:25:47;101341.00;;;28.15;22.28
50859;BME280;36826;47.514;19.056;2023-02-16T07:28:12;101342.53;;;27.79;22.73
50859;BME280;36826;47.514;19.056;2023-02-16T07:30:38;101339.25;;;28.46;21.86
50859;BME280;36826;47.514;19.056;2023-02-16T07:33:03;101340.66;;;28.93;21.95
50859;BME280;36826;47.514;19.056;2023-02-16T07:35:30;101342.63;;;28.67;22.19
50859;BME280;36826;47.514;19.056;2023-02-16T07:37:56;101335.56;;;28.53;21.79
50859;BME280;36826;47.514;19.056;2023-02-16T07:40:21;101329.66;;;29.42;21.57
50859;BME280;36826;47.514;19.056;2023-02-16T07:42:46;101327.00;;;29.90;21.16
50859;BME280;36826;47.514;19.056;2023-02-16T07:45:12;101325.09;;;25.82;23.37
50859;BME280;36826;47.514;19.056;2023-02-16T07:47:37;101329.69;;;23.85;25.71
50859;BME280;36826;47.514;19.056;2023-02-16T07:50:03;101326.03;;;25.40;24.54
50859;BME280;36826;47.514;19.056;2023-02-16T07:52:28;101323.56;;;24.97;25.02
50859;BME280;36826;47.514;19.056;2023-02-16T07:54:56;101315.09;;;25.47;24.15
50859;BME280;36826;47.514;19.056;2023-02-16T07:57:21;101335.19;;;24.07;25.49
50859;BME280;36826;47.514;19.056;2023-02-16T07:59:49;101323.91;;;23.73;25.78
50859;BME280;36826;47.514;19.056;2023-02-16T08:02:15;101323.56;;;23.40;26.17
50859;BME280;36826;47.514;19.056;2023-02-16T08:04:41;101320.66;;;25.94;24.29
50859;BME280;36826;47.514;19.056;2023-02-16T08:07:06;101326.03;;;25.40;24.89
50859;BME280;36826;47.514;19.056;2023-02-16T08:09:31;101317.75;;;27.02;24.00
50859;BME280;36826;47.514;19.056;2023-02-16T08:11:58;101320.78;;;26.73;23.47
50859;BME280;36826;47.514;19.056;2023-02-16T08:14:23;101324.59;;;25.45;25.54
50859;BME280;36826;47.514;19.056;2023-02-16T08:16:48;101322.81;;;27.50;23.47
50859;BME280;36826;47.514;19.056;2023-02-16T08:19:14;101318.53;;;29.12;22.61
50859;BME280;36826;47.514;19.056;2023-02-16T08:21:39;101328.00;;;28.23;22.52
50859;BME280;36826;47.514;19.056;2023-02-16T08:24:06;101326.34;;;27.90;22.72
50859;BME280;36826;47.514;19.056;2023-02-16T08:26:33;101327.69;;;28.93;22.19
50859;BME280;36826;47.514;19.056;2023-02-16T08:29:01;101335.41;;;24.41;25.92
50859;BME280;36826;47.514;19.056;2023-02-16T08:31:27;101332.94;;;26.12;24.56
50859;BME280;36826;47.514;19.056;2023-02-16T08:33:54;101329.28;;;25.78;24.23
50859;BME280;36826;47.514;19.056;2023-02-16T08:36:21;101337.81;;;23.35;26.33
50859;BME280;36826;47.514;19.056;2023-02-16T08:38:47;101337.31;;;25.04;25.40
50859;BME280;36826;47.514;19.056;2023-02-16T08:41:15;101330.56;;;26.56;24.04
50859;BME280;36826;47.514;19.056;2023-02-16T08:43:41;101326.50;;;26.85;23.52
50859;BME280;36826;47.514;19.056;2023-02-16T08:46:06;101326.56;;;26.45;23.77
50859;BME280;36826;47.514;19.056;2023-02-16T08:48:35;101331.50;;;25.40;24.69
50859;BME280;36826;47.514;19.056;2023-02-16T08:51:00;101322.78;;;26.26;24.70
50859;BME280;36826;47.514;19.056;2023-02-16T08:53:31;101332.75;;;25.31;24.94
50859;BME280;36826;47.514;19.056;2023-02-16T08:55:59;101338.81;;;25.13;24.84
50859;BME280;36826;47.514;19.056;2023-02-16T08:58:26;101329.31;;;24.10;25.69
50859;BME280;36826;47.514;19.056;2023-02-16T09:00:52;101326.81;;;25.21;25.35
50859;BME280;36826;47.514;19.056;2023-02-16T09:03:18;101333.97;;;24.45;25.97
50859;BME280;36826;47.514;19.056;2023-02-16T09:05:47;101328.25;;;26.06;24.84
50859;BME280;36826;47.514;19.056;2023-02-16T09:08:13;101334.06;;;25.35;25.03
50859;BME280;36826;47.514;19.056;2023-02-16T09:10:39;101332.91;;;25.09;24.90
50859;BME280;36826;47.514;19.056;2023-02-16T09:13:05;101331.59;;;24.35;25.83
50859;BME280;36826;47.514;19.056;2023-02-16T09:15:33;101330.31;;;24.66;25.63
50859;BME280;36826;47.514;19.056;2023-02-16T09:17:58;101326.50;;;24.03;26.12
50859;BME280;36826;47.514;19.056;2023-02-16T09:20:24;101320.56;;;22.30;28.05
50859;BME280;36826;47.514;19.056;2023-02-16T09:22:51;101321.94;;;24.39;26.42
50859;BME280;36826;47.514;19.056;2023-02-16T09:25:17;101321.22;;;23.37;27.46
50859;BME280;36826;47.514;19.056;2023-02-16T09:27:42;101317.56;;;23.29;27.86
50859;BME280;36826;47.514;19.056;2023-02-16T09:30:07;101325.06;;;23.86;27.01
50859;BME280;36826;47.514;19.056;2023-02-16T09:32:34;101320.19;;;25.57;25.68
50859;BME280;36826;47.514;19.056;2023-02-16T09:34:59;101317.56;;;27.42;24.81
50859;BME280;36826;47.514;19.056;2023-02-16T09:37:25;101322.38;;;27.53;23.73
50859;BME280;36826;47.514;19.056;2023-02-16T09:39:50;101315.53;;;27.24;23.66
50859;BME280;36826;47.514;19.056;2023-02-16T09:45:07;101315.84;;;27.02;24.61
50859;BME280;36826;47.514;19.056;2023-02-16T09:47:35;101320.63;;;25.74;25.41
50859;BME280;36826;47.514;19.056;2023-02-16T09:50:12;101321.50;;;26.15;25.04
50859;BME280;36826;47.514;19.056;2023-02-16T09:52:39;101311.72;;;26.66;24.86
50859;BME280;36826;47.514;19.056;2023-02-16T09:55:12;101313.00;;;27.22;24.98
50859;BME280;36826;47.514;19.056;2023-02-16T10:00:24;101302.38;;;28.41;23.77
50859;BME280;36826;47.514;19.056;2023-02-16T10:02:52;101304.75;;;28.37;23.34
50859;BME280;36826;47.514;19.056;2023-02-16T10:05:22;101306.34;;;29.19;23.06
50859;BME280;36826;47.514;19.056;2023-02-16T10:07:53;101302.44;;;29.27;23.09
50859;BME280;36826;47.514;19.056;2023-02-16T10:10:21;101306.25;;;29.57;22.86
50859;BME280;36826;47.514;19.056;2023-02-16T10:12:54;101306.09;;;29.39;22.89
50859;BME280;36826;47.514;19.056;2023-02-16T10:15:22;101309.00;;;28.96;23.60
50859;BME280;36826;47.514;19.056;2023-02-16T10:17:51;101300.91;;;27.69;24.10
50859;BME280;36826;47.514;19.056;2023-02-16T10:20:23;101297.88;;;28.28;24.20
50859;BME280;36826;47.514;19.056;2023-02-16T10:22:51;101302.50;;;26.40;25.40
50859;BME280;36826;47.514;19.056;2023-02-16T10:25:20;101292.34;;;25.53;26.51
50859;BME280;36826;47.514;19.056;2023-02-16T10:27:50;101293.22;;;25.81;26.57
50859;BME280;36826;47.514;19.056;2023-02-16T10:30:20;101298.53;;;25.13;27.06
50859;BME280;36826;47.514;19.056;2023-02-16T10:32:53;101299.47;;;23.28;28.83
50859;BME280;36826;47.514;19.056;2023-02-16T10:35:20;101292.09;;;22.62;29.49
50859;BME280;36826;47.514;19.056;2023-02-16T10:40:35;101291.63;;;21.67;31.25
50859;BME280;36826;47.514;19.056;2023-02-16T10:43:12;101294.50;;;20.71;32.21
50859;BME280;36826;47.514;19.056;2023-02-16T10:45:50;101291.94;;;20.69;32.24
50859;BME280;36826;47.514;19.056;2023-02-16T10:48:15;101285.56;;;20.46;32.61
50859;BME280;36826;47.514;19.056;2023-02-16T10:50:42;101284.91;;;19.36;33.80
50859;BME280;36826;47.514;19.056;2023-02-16T10:53:09;101283.88;;;18.51;35.45
50859;BME280;36826;47.514;19.056;2023-02-16T10:55:37;101273.84;;;17.55;37.06
50859;BME280;36826;47.514;19.056;2023-02-16T10:58:03;101280.88;;;18.02;37.03
50859;BME280;36826;47.514;19.056;2023-02-16T11:00:41;101267.81;;;17.61;37.46
50859;BME280;36826;47.514;19.056;2023-02-16T11:03:11;101270.50;;;18.50;36.02
50859;BME280;36826;47.514;19.056;2023-02-16T11:05:37;101259.81;;;18.22;36.53
50859;BME280;36826;47.514;19.056;2023-02-16T11:08:04;101262.25;;;18.33;36.99
50859;BME280;36826;47.514;19.056;2023-02-16T11:10:35;101255.81;;;18.34;36.92
50859;BME280;36826;47.514;19.056;2023-02-16T11:13:00;101258.81;;;17.42;38.05
50859;BME280;36826;47.514;19.056;2023-02-16T11:15:26;101262.16;;;18.43;36.84
50859;BME280;36826;47.514;19.056;2023-02-16T11:17:53;101255.72;;;17.37;38.09
50859;BME280;36826;47.514;19.056;2023-02-16T11:23:25;101247.03;;;17.70;38.02
50859;BME280;36826;47.514;19.056;2023-02-16T11:28:28;101237.16;;;18.31;37.25
50859;BME280;36826;47.514;19.056;2023-02-16T11:33:34;101239.78;;;16.22;40.88
50859;BME280;36826;47.514;19.056;2023-02-16T11:36:02;101239.78;;;16.22;41.09
50859;BME280;36826;47.514;19.056;2023-02-16T11:38:35;101233.09;;;16.64;40.23
50859;BME280;36826;47.514;19.056;2023-02-16T11:41:02;101226.94;;;16.44;40.64
50859;BME280;36826;47.514;19.056;2023-02-16T11:43:29;101230.44;;;16.82;40.04
50859;BME280;36826;47.514;19.056;2023-02-16T11:46:00;101226.13;;;16.62;40.40
50859;BME280;36826;47.514;19.056;2023-02-16T11:48:30;101228.47;;;16.47;40.21
50859;BME280;36826;47.514;19.056;2023-02-16T11:51:04;101221.41;;;15.88;41.79
50859;BME280;36826;47.514;19.056;2023-02-16T11:53:31;101222.06;;;16.10;41.43
50859;BME280;36826;47.514;19.056;2023-02-16T11:58:34;101213.22;;;16.08;41.77
50859;BME280;36826;47.514;19.056;2023-02-16T12:03:55;101196.53;;;16.22;41.58
50859;BME280;36826;47.514;19.056;2023-02-16T12:08:57;101196.09;;;15.89;42.79
50859;BME280;36826;47.514;19.056;2023-02-16T12:11:40;101192.41;;;15.90;42.45
50859;BME280;36826;47.514;19.056;2023-02-16T12:17:00;101171.19;;;16.33;42.30
50859;BME280;36826;47.514;19.056;2023-02-16T12:21:56;101159.31;;;17.71;39.62
50859;BME280;36826;47.514;19.056;2023-02-16T12:26:59;101160.16;;;16.72;41.14
50859;BME280;36826;47.514;19.056;2023-02-16T12:42:34;101147.94;;;16.40;42.12
50859;BME280;36826;47.514;19.056;2023-02-16T12:44:58;101137.81;;;16.88;41.61
50859;BME280;36826;47.514;19.056;2023-02-16T12:47:29;101134.00;;;17.09;41.25
50859;BME280;36826;47.514;19.056;2023-02-16T12:50:03;101132.53;;;17.41;40.56
50859;BME280;36826;47.514;19.056;2023-02-16T12:54:56;101125.75;;;17.37;41.13
50859;BME280;36826;47.514;19.056;2023-02-16T12:57:23;101117.97;;;17.87;40.00
50859;BME280;36826;47.514;19.056;2023-02-16T12:59:54;101119.47;;;17.10;41.38
50859;BME280;36826;47.514;19.056;2023-02-16T13:02:23;101122.22;;;17.18;41.18
50859;BME280;36826;47.514;19.056;2023-02-16T13:07:34;101106.88;;;18.06;39.82
50859;BME280;36826;47.514;19.056;2023-02-16T13:10:13;101103.63;;;18.46;38.90
50859;BME280;36826;47.514;19.056;2023-02-16T13:12:43;101093.00;;;17.83;40.20
50859;BME280;36826;47.514;19.056;2023-02-16T13:15:17;101091.34;;;17.11;40.83
50859;BME280;36826;47.514;19.056;2023-02-16T13:17:57;101097.28;;;17.33;40.40
50859;BME280;36826;47.514;19.056;2023-02-16T13:20:25;101090.75;;;17.44;41.02
50859;BME280;36826;47.514;19.056;2023-02-16T13:30:42;101079.69;;;17.37;40.92
50859;BME280;36826;47.514;19.056;2023-02-16T13:41:51;101067.34;;;17.08;41.58
50859;BME280;36826;47.514;19.056;2023-02-16T13:44:24;101064.16;;;17.39;40.93
50859;BME280;36826;47.514;19.056;2023-02-16T13:46:52;101068.00;;;18.24;39.62
50859;BME280;36826;47.514;19.056;2023-02-16T13:49:51;101069.75;;;18.50;39.22
50859;BME280;36826;47.514;19.056;2023-02-16T13:52:32;101062.66;;;19.31;38.53
50859;BME280;36826;47.514;19.056;2023-02-16T13:54:56;101063.31;;;18.92;38.60
50859;BME280;36826;47.514;19.056;2023-02-16T13:58:08;101063.31;;;18.59;38.64
50859;BME280;36826;47.514;19.056;2023-02-16T14:00:23;101055.75;;;18.96;38.45
50859;BME280;36826;47.514;19.056;2023-02-16T14:02:59;101059.09;;;19.31;37.55
50859;BME280;36826;47.514;19.056;2023-02-16T14:05:26;101056.63;;;19.69;37.59
50859;BME280;36826;47.514;19.056;2023-02-16T14:15:59;101037.00;;;20.07;36.62
50859;BME280;36826;47.514;19.056;2023-02-16T14:18:33;101041.53;;;19.67;36.65
50859;BME280;36826;47.514;19.056;2023-02-16T14:21:02;101049.53;;;20.08;36.29
50859;BME280;36826;47.514;19.056;2023-02-16T14:23:28;101049.19;;;19.55;37.13
50859;BME280;36826;47.514;19.056;2023-02-16T14:26:05;101040.28;;;20.26;36.50
50859;BME280;36826;47.514;19.056;2023-02-16T14:30:56;101040.19;;;20.42;36.44
50859;BME280;36826;47.514;19.056;2023-02-16T14:36:14;101048.53;;;20.64;36.04
50859;BME280;36826;47.514;19.056;2023-02-16T14:38:41;101038.81;;;20.93;35.37